Time;durP1;ratioP1;P1;durP2;ratioP2;P2;SDS_P1;SDS_P2;PMS_P1;PMS_P2;Temp;Humidity;BMP_temperature;BMP_pressure;BME280_temperature;BME280_humidity;BME280_pressure;Samples;Min_cycle;Max_cycle;Signal;HPM_P1;HPM_P2
2023/09/26 00:02:16;;;;;;;13.50;4.20;;;;;;;13.84;90.58;101233.20;109789;1268;22242;-58
2023/09/26 00:04:48;;;;;;;11.40;3.70;;;;;;;13.84;90.64;101232.77;109796;1277;22141;-58
2023/09/26 00:07:19;;;;;;;12.30;4.00;;;;;;;13.82;90.65;101235.35;109795;1284;22188;-56
2023/09/26 00:09:50;;;;;;;11.10;3.90;;;;;;;13.80;90.58;101237.44;109807;1277;22278;-59
2023/09/26 00:12:21;;;;;;;12.90;3.90;;;;;;;13.76;90.72;101233.78;109825;1284;22187;-59
2023/09/26 00:14:52;;;;;;;11.60;3.90;;;;;;;13.73;90.78;101232.08;109783;1284;22217;-57
2023/09/26 00:17:22;;;;;;;13.40;4.90;;;;;;;13.72;90.90;101228.76;109784;1277;22244;-59
2023/09/26 00:19:53;;;;;;;11.90;5.00;;;;;;;13.71;90.91;101229.55;109819;1280;23334;-57
2023/09/26 00:22:24;;;;;;;11.90;4.60;;;;;;;13.69;90.83;101227.20;109815;1284;22306;-57
2023/09/26 00:24:55;;;;;;;12.10;4.20;;;;;;;13.68;90.92;101223.85;109826;1273;22634;-57
2023/09/26 00:27:26;;;;;;;12.40;4.50;;;;;;;13.70;91.21;101228.15;109794;1284;22328;-57
2023/09/26 00:29:57;;;;;;;12.80;4.50;;;;;;;13.72;91.29;101230.60;109818;1283;22178;-57
2023/09/26 00:32:30;;;;;;;12.00;4.30;;;;;;;13.74;91.65;101228.48;109799;1277;22222;-59
2023/09/26 00:35:01;;;;;;;12.30;4.60;;;;;;;13.76;91.75;101228.29;109792;1277;23141;-57
2023/09/26 00:37:31;;;;;;;10.90;3.80;;;;;;;13.80;92.18;101229.34;109788;1284;22227;-57
2023/09/26 00:40:04;;;;;;;13.10;4.20;;;;;;;13.81;92.33;101228.23;109794;1284;22177;-58
2023/09/26 00:42:34;;;;;;;12.90;4.60;;;;;;;13.83;92.55;101227.92;109801;1276;22925;-58
2023/09/26 00:45:07;;;;;;;12.60;4.00;;;;;;;13.83;92.63;101227.60;109804;1280;22996;-58
2023/09/26 00:47:38;;;;;;;12.10;4.20;;;;;;;13.82;92.72;101227.85;109798;1284;22120;-56
2023/09/26 00:50:12;;;;;;;12.40;4.50;;;;;;;13.80;92.68;101224.75;109791;1284;22156;-58
2023/09/26 00:52:45;;;;;;;13.20;4.60;;;;;;;13.79;92.74;101223.60;109817;1277;22159;-57
2023/09/26 00:55:17;;;;;;;11.20;4.20;;;;;;;13.77;92.80;101221.92;109814;1277;22179;-58
2023/09/26 00:57:49;;;;;;;10.60;3.80;;;;;;;13.74;92.90;101221.76;109808;1277;22221;-59
2023/09/26 01:00:21;;;;;;;12.50;4.00;;;;;;;13.70;93.00;101215.80;109801;1277;22218;-58
2023/09/26 01:02:52;;;;;;;12.20;3.80;;;;;;;13.67;92.93;101217.25;109790;1277;22174;-57
2023/09/26 01:05:23;;;;;;;13.60;4.00;;;;;;;13.63;93.12;101218.61;109787;1277;22355;-56
2023/09/26 01:07:54;;;;;;;10.30;3.80;;;;;;;13.61;93.30;101216.16;109782;1284;22372;-57
2023/09/26 01:10:25;;;;;;;17.30;4.30;;;;;;;13.56;93.29;101214.46;109801;1284;22278;-55
2023/09/26 01:12:55;;;;;;;10.90;3.50;;;;;;;13.53;93.19;101214.40;109798;1284;22226;-56
2023/09/26 01:15:38;;;;;;;10.80;3.90;;;;;;;13.50;93.07;101214.08;109790;1284;23567;-57
2023/09/26 01:18:11;;;;;;;9.00;3.50;;;;;;;13.44;93.02;101211.64;109792;1277;22929;-58
2023/09/26 01:20:44;;;;;;;10.80;3.40;;;;;;;13.38;92.83;101213.36;109807;1284;22425;-57
2023/09/26 01:23:16;;;;;;;10.70;3.80;;;;;;;13.34;93.00;101210.80;109819;1284;22137;-58
2023/09/26 01:25:47;;;;;;;8.20;3.10;;;;;;;13.31;93.01;101208.75;109791;1284;22158;-58
2023/09/26 01:28:19;;;;;;;14.50;4.20;;;;;;;13.32;92.86;101207.84;109770;1277;23003;-58
2023/09/26 01:30:50;;;;;;;8.60;3.00;;;;;;;13.31;92.77;101203.39;109817;1280;23354;-57
2023/09/26 01:33:21;;;;;;;10.90;3.30;;;;;;;13.29;92.86;101201.25;109805;1284;22207;-58
2023/09/26 01:35:53;;;;;;;10.00;3.70;;;;;;;13.29;92.97;101202.06;109782;1272;22211;-58
2023/09/26 01:38:25;;;;;;;11.60;4.10;;;;;;;13.29;93.10;101199.47;109812;1280;23081;-58
2023/09/26 01:40:56;;;;;;;16.50;5.10;;;;;;;13.30;93.17;101197.45;109807;1284;22214;-57
2023/09/26 01:43:27;;;;;;;19.60;6.70;;;;;;;13.32;93.42;101197.45;109800;1284;23010;-57
2023/09/26 01:45:58;;;;;;;17.00;6.40;;;;;;;13.32;93.54;101197.40;109782;1284;22364;-58
2023/09/26 01:48:29;;;;;;;18.10;6.90;;;;;;;13.32;93.81;101196.14;109790;1281;22853;-56
2023/09/26 01:51:00;;;;;;;15.40;6.20;;;;;;;13.31;93.88;101194.20;109769;1284;23117;-55
2023/09/26 01:53:31;;;;;;;16.90;5.70;;;;;;;13.28;93.96;101193.54;109808;1284;22316;-58
2023/09/26 01:56:02;;;;;;;15.40;5.20;;;;;;;13.26;93.81;101189.55;109771;1280;22204;-58
2023/09/26 01:58:33;;;;;;;12.00;4.60;;;;;;;13.24;93.83;101187.16;109792;1280;22277;-58
2023/09/26 02:01:05;;;;;;;14.90;5.60;;;;;;;13.24;93.75;101188.63;109808;1284;22368;-58
2023/09/26 02:03:36;;;;;;;14.30;5.70;;;;;;;13.23;93.87;101188.01;109804;1280;22190;-56
2023/09/26 02:06:07;;;;;;;14.60;5.90;;;;;;;13.21;93.84;101182.16;109800;1280;22160;-59
2023/09/26 02:08:38;;;;;;;15.00;5.70;;;;;;;13.21;94.17;101180.91;109796;1284;24672;-58
2023/09/26 02:11:09;;;;;;;17.10;5.30;;;;;;;13.19;94.12;101183.29;109786;1284;22164;-57
2023/09/26 02:13:40;;;;;;;15.80;6.00;;;;;;;13.20;94.30;101180.49;109815;1280;22345;-58
2023/09/26 02:16:13;;;;;;;13.70;5.40;;;;;;;13.19;94.24;101177.62;109779;1284;22205;-56
2023/09/26 02:18:45;;;;;;;16.50;6.20;;;;;;;13.18;94.29;101175.55;109775;1284;22327;-56
2023/09/26 02:21:21;;;;;;;16.00;5.50;;;;;;;13.16;94.59;101176.98;109797;1284;22256;-55
2023/09/26 02:23:51;;;;;;;14.90;5.50;;;;;;;13.14;94.70;101173.93;109823;1284;22203;-57
2023/09/26 02:26:22;;;;;;;16.40;5.80;;;;;;;13.13;94.65;101173.10;109799;1284;22204;-57
2023/09/26 02:28:53;;;;;;;15.70;5.50;;;;;;;13.11;94.64;101170.44;109794;1284;23348;-58
2023/09/26 02:31:24;;;;;;;17.70;4.90;;;;;;;13.07;94.65;101177.23;109803;1274;22431;-58
2023/09/26 02:33:56;;;;;;;14.40;5.00;;;;;;;13.04;94.54;101171.89;109800;1280;22302;-56
2023/09/26 02:36:27;;;;;;;12.10;5.00;;;;;;;13.00;94.55;101172.91;109791;1284;22210;-58
2023/09/26 02:38:58;;;;;;;14.20;5.20;;;;;;;12.97;94.39;101173.77;109795;1279;22181;-58
2023/09/26 02:41:28;;;;;;;12.10;4.80;;;;;;;12.94;94.35;101172.00;109799;1284;22941;-55
2023/09/26 02:43:59;;;;;;;14.10;5.20;;;;;;;12.91;94.34;101172.45;109796;1280;22398;-58
2023/09/26 02:46:30;;;;;;;14.60;5.20;;;;;;;12.88;94.36;101171.16;109771;1280;22221;-56
2023/09/26 02:49:01;;;;;;;15.70;4.80;;;;;;;12.85;94.41;101172.35;109795;1284;22725;-55
2023/09/26 02:51:32;;;;;;;14.80;4.60;;;;;;;12.82;94.35;101171.20;109785;1284;22233;-57
2023/09/26 02:54:03;;;;;;;13.40;5.30;;;;;;;12.80;94.34;101172.73;109800;1281;22258;-58
2023/09/26 02:56:34;;;;;;;12.20;4.60;;;;;;;12.79;94.47;101175.60;109799;1284;22351;-57
2023/09/26 02:59:05;;;;;;;19.10;4.90;;;;;;;12.79;94.54;101174.17;109818;1284;22216;-57
2023/09/26 03:01:36;;;;;;;14.10;4.80;;;;;;;12.77;94.47;101176.67;109805;1276;22205;-58
2023/09/26 03:04:07;;;;;;;19.50;6.80;;;;;;;12.74;94.60;101176.55;109817;1273;22212;-57
2023/09/26 03:06:38;;;;;;;13.00;4.70;;;;;;;12.70;94.58;101182.66;109801;1284;23215;-57
2023/09/26 03:09:09;;;;;;;13.30;5.60;;;;;;;12.66;94.52;101182.52;109796;1276;22126;-57
2023/09/26 03:11:40;;;;;;;14.00;5.80;;;;;;;12.63;94.55;101182.54;109794;1284;22980;-56
2023/09/26 03:14:12;;;;;;;13.80;5.40;;;;;;;12.60;94.46;101182.73;109808;1277;22163;-57
2023/09/26 03:16:43;;;;;;;16.00;5.40;;;;;;;12.58;94.37;101179.05;109785;1276;22255;-57
2023/09/26 03:19:16;;;;;;;15.50;5.90;;;;;;;12.58;94.39;101172.98;109789;1284;22196;-58
2023/09/26 03:21:47;;;;;;;14.50;5.90;;;;;;;12.58;94.73;101172.48;109823;1283;22786;-58
2023/09/26 03:24:18;;;;;;;15.60;6.40;;;;;;;12.59;94.97;101174.38;109826;1280;22240;-58
2023/09/26 03:26:49;;;;;;;15.20;6.10;;;;;;;12.60;95.14;101173.29;109798;1276;23391;-58
2023/09/26 03:29:20;;;;;;;17.30;5.80;;;;;;;12.62;95.44;101174.41;109805;1284;22171;-55
2023/09/26 03:31:51;;;;;;;17.40;6.30;;;;;;;12.63;95.53;101173.10;109801;1273;22425;-57
2023/09/26 03:34:22;;;;;;;16.00;6.00;;;;;;;12.63;95.54;101174.19;109806;1280;22150;-58
2023/09/26 03:36:53;;;;;;;16.00;5.60;;;;;;;12.64;95.44;101175.98;109772;1276;22190;-57
2023/09/26 03:39:24;;;;;;;17.20;7.00;;;;;;;12.64;95.32;101177.17;109803;1284;22232;-57
2023/09/26 03:41:55;;;;;;;17.60;7.10;;;;;;;12.63;95.42;101181.07;109790;1284;22265;-56
2023/09/26 03:44:26;;;;;;;16.40;6.20;;;;;;;12.62;95.42;101183.02;109785;1284;22278;-57
2023/09/26 03:46:57;;;;;;;16.40;6.20;;;;;;;12.61;95.44;101181.06;109793;1284;22866;-57
2023/09/26 03:49:28;;;;;;;18.60;7.10;;;;;;;12.60;95.34;101180.57;109795;1284;22190;-57
2023/09/26 03:51:59;;;;;;;16.80;6.90;;;;;;;12.58;95.34;101178.42;109781;1284;23070;-60
2023/09/26 03:54:31;;;;;;;16.20;6.30;;;;;;;12.56;95.43;101175.95;109802;1279;22933;-59
2023/09/26 03:57:02;;;;;;;14.80;5.70;;;;;;;12.55;95.44;101172.17;109781;1277;22187;-58
2023/09/26 03:59:33;;;;;;;15.10;6.40;;;;;;;12.56;95.28;101177.35;109800;1284;22152;-59
2023/09/26 04:02:04;;;;;;;16.30;6.80;;;;;;;12.54;95.19;101177.66;109779;1284;22189;-59
2023/09/26 04:04:35;;;;;;;17.20;6.60;;;;;;;12.52;95.32;101175.58;109783;1274;22213;-58
2023/09/26 04:07:06;;;;;;;21.50;7.20;;;;;;;12.50;95.51;101174.45;109784;1278;22136;-58
2023/09/26 04:09:37;;;;;;;18.20;5.30;;;;;;;12.48;95.46;101176.17;109786;1277;22976;-58
2023/09/26 04:12:09;;;;;;;16.30;5.70;;;;;;;12.46;95.49;101173.48;109808;1284;22167;-59
2023/09/26 04:14:40;;;;;;;17.70;6.30;;;;;;;12.44;95.44;101173.08;109773;1279;22242;-59
2023/09/26 04:17:11;;;;;;;18.30;6.30;;;;;;;12.44;95.45;101168.92;109777;1280;22164;-58
2023/09/26 04:19:42;;;;;;;18.20;6.90;;;;;;;12.44;95.62;101168.68;109793;1282;23054;-58
2023/09/26 04:22:12;;;;;;;18.50;6.30;;;;;;;12.44;95.62;101166.25;109787;1283;22129;-58
2023/09/26 04:24:43;;;;;;;19.30;7.60;;;;;;;12.46;95.74;101168.50;109776;1277;22387;-59
2023/09/26 04:27:14;;;;;;;17.70;6.90;;;;;;;12.47;96.05;101168.77;109721;1284;22340;-57
2023/09/26 04:29:45;;;;;;;18.20;7.90;;;;;;;12.49;96.36;101171.52;109630;1280;22374;-59
2023/09/26 04:32:16;;;;;;;23.60;7.50;;;;;;;12.48;96.39;101172.88;109662;1277;22191;-61
2023/09/26 04:34:47;;;;;;;20.50;7.50;;;;;;;12.50;96.40;101172.31;109763;1284;22327;-60
2023/09/26 04:37:18;;;;;;;20.10;7.20;;;;;;;12.51;96.79;101172.28;109720;1276;22147;-59
2023/09/26 04:39:49;;;;;;;18.40;7.40;;;;;;;12.52;96.91;101172.88;109695;1277;22183;-64
2023/09/26 04:42:20;;;;;;;19.60;6.20;;;;;;;12.52;96.89;101174.46;109663;1276;22341;-56
2023/09/26 04:44:52;;;;;;;18.00;7.20;;;;;;;12.52;97.01;101174.05;109695;1277;23108;-59
2023/09/26 04:47:24;;;;;;;21.20;7.50;;;;;;;12.53;97.57;101175.05;109743;1277;22193;-57
2023/09/26 04:49:56;;;;;;;19.80;7.30;;;;;;;12.54;97.30;101181.27;109697;1277;23152;-64
2023/09/26 04:52:27;;;;;;;20.10;7.20;;;;;;;12.53;97.35;101185.64;109683;1277;22176;-57
2023/09/26 04:54:57;;;;;;;16.80;7.10;;;;;;;12.52;97.28;101186.33;109664;1268;22152;-57
2023/09/26 04:57:28;;;;;;;20.30;7.90;;;;;;;12.51;97.60;101181.71;109720;1276;22228;-55
2023/09/26 05:00:00;;;;;;;22.40;9.00;;;;;;;12.50;97.58;101182.70;109698;1276;22366;-58
2023/09/26 05:02:31;;;;;;;22.00;8.50;;;;;;;12.51;97.76;101177.90;109769;1280;22355;-57
2023/09/26 05:05:03;;;;;;;26.60;8.00;;;;;;;12.52;98.13;101182.65;109650;1279;22214;-59
2023/09/26 05:07:34;;;;;;;20.60;7.20;;;;;;;12.53;98.25;101184.66;109753;1277;22320;-58
2023/09/26 05:10:06;;;;;;;33.20;8.50;;;;;;;12.52;98.47;101186.79;109777;1277;22299;-58
2023/09/26 05:12:40;;;;;;;20.40;8.30;;;;;;;12.52;98.52;101183.58;109791;1279;22307;-59
2023/09/26 05:15:14;;;;;;;22.00;8.00;;;;;;;12.52;98.50;101186.02;109770;1283;22306;-58
2023/09/26 05:17:49;;;;;;;18.70;7.70;;;;;;;12.52;98.42;101185.36;109729;1277;22873;-58
2023/09/26 05:20:20;;;;;;;18.00;7.00;;;;;;;12.52;98.53;101184.65;109801;1279;22192;-60
2023/09/26 05:22:51;;;;;;;18.10;7.30;;;;;;;12.51;98.59;101183.42;109832;1284;23129;-58
2023/09/26 05:25:22;;;;;;;17.40;7.00;;;;;;;12.50;98.70;101182.39;109823;1284;22231;-60
2023/09/26 05:27:53;;;;;;;18.50;6.80;;;;;;;12.50;98.73;101180.66;109776;1284;22164;-60
2023/09/26 05:30:24;;;;;;;16.70;6.70;;;;;;;12.51;98.83;101179.73;109782;1280;22174;-60
2023/09/26 05:32:55;;;;;;;24.00;8.70;;;;;;;12.55;98.87;101180.48;109778;1284;22463;-59
2023/09/26 05:35:26;;;;;;;23.90;10.40;;;;;;;12.60;99.17;101178.89;109794;1284;22178;-60
2023/09/26 05:37:57;;;;;;;25.90;10.80;;;;;;;12.66;99.70;101179.25;109749;1277;23159;-58
2023/09/26 05:40:28;;;;;;;23.10;9.70;;;;;;;12.73;99.98;101185.18;109794;1282;22247;-60
2023/09/26 05:42:59;;;;;;;27.20;11.90;;;;;;;12.79;100.00;101182.83;109698;1273;23730;-57
2023/09/26 05:45:30;;;;;;;24.90;10.20;;;;;;;12.84;100.00;101185.30;109783;1281;23574;-60
2023/09/26 05:48:01;;;;;;;26.50;12.00;;;;;;;12.89;100.00;101186.18;109758;1281;22372;-57
2023/09/26 05:53:27;;;;;;;35.00;15.10;;;;;;;13.00;100.00;101185.23;109660;1284;22304;-57
2023/09/26 05:55:59;;;;;;;29.70;11.80;;;;;;;13.06;100.00;101182.67;109741;1277;22351;-60
2023/09/26 05:58:38;;;;;;;24.60;10.40;;;;;;;13.11;100.00;101183.86;109691;1278;22280;-62
2023/09/26 06:01:11;;;;;;;27.80;11.50;;;;;;;13.16;100.00;101181.68;109781;1281;22217;-61
2023/09/26 06:03:42;;;;;;;25.10;10.40;;;;;;;13.22;100.00;101180.63;109731;1277;22404;-58
2023/09/26 06:06:13;;;;;;;29.50;12.00;;;;;;;13.27;100.00;101176.62;109801;1279;22308;-59
2023/09/26 06:08:44;;;;;;;28.30;12.30;;;;;;;13.32;100.00;101175.22;109763;1276;22180;-59
2023/09/26 06:11:16;;;;;;;32.80;14.10;;;;;;;13.38;100.00;101180.05;109796;1281;22915;-60
2023/09/26 06:13:47;;;;;;;26.40;12.00;;;;;;;13.44;100.00;101181.41;109765;1279;22148;-61
2023/09/26 06:16:18;;;;;;;31.80;13.40;;;;;;;13.51;100.00;101182.06;109757;1278;22143;-60
2023/09/26 06:18:49;;;;;;;32.50;14.50;;;;;;;13.57;100.00;101184.80;109779;1276;22181;-59
2023/09/26 06:21:20;;;;;;;33.80;15.80;;;;;;;13.64;100.00;101185.31;109785;1282;22349;-58
2023/09/26 06:23:51;;;;;;;34.80;15.30;;;;;;;13.72;100.00;101185.08;109794;1283;23102;-62
2023/09/26 06:26:22;;;;;;;38.80;17.10;;;;;;;13.79;100.00;101185.73;109789;1282;22186;-59
2023/09/26 06:28:53;;;;;;;32.50;16.10;;;;;;;13.86;100.00;101181.14;109791;1276;22161;-60
2023/09/26 06:31:24;;;;;;;32.10;17.20;;;;;;;13.94;100.00;101183.07;109796;1283;22888;-61
2023/09/26 06:33:56;;;;;;;36.00;17.50;;;;;;;14.02;100.00;101184.11;109815;1277;22295;-61
2023/09/26 06:36:30;;;;;;;37.30;17.50;;;;;;;14.09;100.00;101182.42;109735;1284;23033;-60
2023/09/26 06:39:01;;;;;;;35.60;18.60;;;;;;;14.15;100.00;101185.70;109785;1276;22385;-60
2023/09/26 06:41:32;;;;;;;38.90;18.70;;;;;;;14.22;100.00;101180.56;109813;1280;22191;-59
2023/09/26 06:44:03;;;;;;;39.10;19.10;;;;;;;14.29;100.00;101179.11;109785;1284;23043;-59
2023/09/26 06:46:34;;;;;;;38.10;17.90;;;;;;;14.38;100.00;101181.26;109815;1284;22161;-59
2023/09/26 06:49:06;;;;;;;36.90;18.00;;;;;;;14.45;100.00;101184.46;109803;1283;22772;-61
2023/09/26 06:51:36;;;;;;;36.60;18.60;;;;;;;14.52;100.00;101188.33;109783;1280;22217;-61
2023/09/26 06:54:08;;;;;;;37.50;18.70;;;;;;;14.60;100.00;101187.84;109739;1284;22379;-61
2023/09/26 06:56:39;;;;;;;42.90;21.10;;;;;;;14.68;100.00;101188.78;109743;1277;22543;-61
2023/09/26 06:59:09;;;;;;;38.70;19.20;;;;;;;14.75;100.00;101187.44;109784;1284;22180;-60
2023/09/26 07:01:40;;;;;;;42.00;20.50;;;;;;;14.82;100.00;101180.98;109821;1276;22216;-59
2023/09/26 07:04:14;;;;;;;39.70;18.40;;;;;;;14.92;100.00;101179.86;109813;1284;22165;-62
2023/09/26 07:06:45;;;;;;;41.40;19.60;;;;;;;15.01;100.00;101182.96;109802;1284;22965;-60
2023/09/26 07:09:16;;;;;;;49.80;22.90;;;;;;;15.11;100.00;101181.18;109789;1284;22861;-61
2023/09/26 07:11:48;;;;;;;47.40;21.40;;;;;;;15.23;100.00;101183.16;109797;1284;23089;-59
2023/09/26 07:14:19;;;;;;;43.50;21.50;;;;;;;15.34;100.00;101189.05;109814;1284;22215;-60
2023/09/26 07:16:51;;;;;;;46.60;23.40;;;;;;;15.44;100.00;101188.72;109803;1284;22894;-62
2023/09/26 07:19:22;;;;;;;44.70;20.90;;;;;;;15.53;100.00;101187.41;109790;1284;22147;-59
2023/09/26 07:21:53;;;;;;;43.20;21.40;;;;;;;15.63;100.00;101186.58;109765;1280;22295;-59
2023/09/26 07:24:24;;;;;;;45.20;20.70;;;;;;;15.72;100.00;101186.38;109788;1270;22195;-62
2023/09/26 07:26:55;;;;;;;41.10;21.00;;;;;;;15.82;100.00;101183.45;109767;1284;22162;-65
2023/09/26 07:29:26;;;;;;;42.70;20.80;;;;;;;15.93;100.00;101184.30;109816;1284;23427;-61
2023/09/26 07:31:57;;;;;;;41.30;21.40;;;;;;;16.03;100.00;101185.70;109822;1281;22595;-62
2023/09/26 07:34:28;;;;;;;41.20;20.80;;;;;;;16.12;100.00;101189.48;109777;1284;22161;-61
2023/09/26 07:36:59;;;;;;;41.90;19.80;;;;;;;16.22;100.00;101193.66;109823;1283;22322;-61
2023/09/26 07:39:30;;;;;;;44.30;21.70;;;;;;;16.32;100.00;101196.42;109799;1283;22152;-62
2023/09/26 07:42:01;;;;;;;47.80;21.70;;;;;;;16.41;100.00;101197.91;109818;1284;22158;-61
2023/09/26 07:44:32;;;;;;;44.20;21.30;;;;;;;16.51;100.00;101198.38;105985;1273;22530;-62
2023/09/26 07:47:03;;;;;;;45.50;21.10;;;;;;;16.59;100.00;101202.52;105629;1284;25689;-61
2023/09/26 07:49:34;;;;;;;43.00;21.30;;;;;;;16.67;100.00;101199.12;109798;1284;22580;-61
2023/09/26 07:52:05;;;;;;;40.30;20.20;;;;;;;16.75;100.00;101198.00;109788;1284;22166;-61
2023/09/26 07:54:36;;;;;;;45.10;22.30;;;;;;;16.81;100.00;101199.72;109807;1284;22768;-60
2023/09/26 07:57:07;;;;;;;42.50;19.30;;;;;;;16.88;100.00;101199.47;109787;1284;22190;-61
2023/09/26 07:59:38;;;;;;;45.10;21.20;;;;;;;16.96;100.00;101202.35;109810;1284;22233;-62
2023/09/26 08:02:10;;;;;;;39.00;19.10;;;;;;;17.03;100.00;101201.08;109786;1284;22181;-60
2023/09/26 08:04:40;;;;;;;41.60;18.50;;;;;;;17.08;100.00;101196.95;109791;1284;22199;-62
2023/09/26 08:07:12;;;;;;;42.30;19.70;;;;;;;17.13;100.00;101204.80;109783;1284;22143;-61
2023/09/26 08:09:43;;;;;;;40.80;18.80;;;;;;;17.19;100.00;101199.65;109803;1284;22147;-62
2023/09/26 08:12:14;;;;;;;36.80;17.50;;;;;;;17.25;100.00;101200.41;109826;1284;22213;-60
2023/09/26 08:14:45;;;;;;;41.50;17.70;;;;;;;17.30;100.00;101196.92;109831;1284;22350;-60
2023/09/26 08:17:15;;;;;;;36.40;18.00;;;;;;;17.36;100.00;101192.75;109834;1278;22129;-61
2023/09/26 08:19:47;;;;;;;37.90;17.80;;;;;;;17.42;100.00;101198.64;109833;1283;22121;-63
2023/09/26 08:22:18;;;;;;;36.10;17.30;;;;;;;17.47;100.00;101196.46;109802;1284;22945;-61
2023/09/26 08:24:48;;;;;;;35.20;17.40;;;;;;;17.51;100.00;101200.06;109818;1284;22448;-62
2023/09/26 08:27:19;;;;;;;38.20;17.60;;;;;;;17.58;100.00;101199.23;109830;1284;22170;-58
2023/09/26 08:29:50;;;;;;;34.60;17.40;;;;;;;17.63;100.00;101200.55;109847;1277;22995;-60
2023/09/26 08:32:21;;;;;;;39.10;18.70;;;;;;;17.69;100.00;101193.70;109822;1284;22183;-60
2023/09/26 08:34:52;;;;;;;37.00;18.80;;;;;;;17.73;100.00;101196.69;109802;1272;22273;-58
2023/09/26 08:37:23;;;;;;;39.70;17.90;;;;;;;17.80;100.00;101193.39;109779;1277;22912;-59
2023/09/26 08:39:54;;;;;;;38.30;18.60;;;;;;;17.86;100.00;101191.62;109837;1277;22349;-59
2023/09/26 08:42:28;;;;;;;37.60;18.50;;;;;;;17.91;100.00;101191.95;109841;1284;22538;-59
2023/09/26 08:45:01;;;;;;;34.60;17.20;;;;;;;17.97;100.00;101192.17;109819;1284;22162;-59
2023/09/26 08:47:33;;;;;;;35.40;16.70;;;;;;;18.03;100.00;101194.46;109819;1272;22926;-59
2023/09/26 08:50:05;;;;;;;41.60;18.50;;;;;;;18.08;100.00;101197.56;109807;1284;22194;-58
2023/09/26 08:52:36;;;;;;;37.50;18.50;;;;;;;18.13;100.00;101199.38;109842;1283;22718;-59
2023/09/26 08:55:09;;;;;;;38.50;17.80;;;;;;;18.19;100.00;101197.44;109823;1280;22190;-60
2023/09/26 08:57:41;;;;;;;38.40;18.10;;;;;;;18.24;100.00;101201.16;109812;1284;22137;-60
2023/09/26 09:00:17;;;;;;;38.10;18.50;;;;;;;18.27;100.00;101203.84;109823;1283;23062;-59
2023/09/26 09:02:49;;;;;;;35.90;18.30;;;;;;;18.31;100.00;101201.08;109849;1284;22164;-59
2023/09/26 09:05:22;;;;;;;40.20;19.50;;;;;;;18.34;100.00;101201.48;109833;1284;22192;-57
2023/09/26 09:07:53;;;;;;;37.00;17.40;;;;;;;18.38;100.00;101203.41;109853;1284;22244;-60
2023/09/26 09:10:26;;;;;;;34.00;18.20;;;;;;;18.38;100.00;101200.54;109855;1284;22155;-60
2023/09/26 09:13:04;;;;;;;40.00;18.40;;;;;;;18.39;100.00;101198.42;109828;1284;22915;-60
2023/09/26 09:15:36;;;;;;;40.40;19.70;;;;;;;18.43;100.00;101200.14;109839;1284;22191;-59
2023/09/26 09:18:07;;;;;;;40.40;18.90;;;;;;;18.45;100.00;101195.09;109828;1284;22161;-59
2023/09/26 09:20:39;;;;;;;41.20;20.60;;;;;;;18.46;100.00;101198.02;109868;1284;22147;-60
2023/09/26 09:23:10;;;;;;;53.90;20.60;;;;;;;18.49;100.00;101197.96;109852;1284;22237;-58
2023/09/26 09:25:41;;;;;;;36.60;18.00;;;;;;;18.52;100.00;101198.65;109827;1284;23017;-59
2023/09/26 09:28:12;;;;;;;38.60;20.70;;;;;;;18.51;100.00;101200.17;109843;1284;22915;-60
2023/09/26 09:30:44;;;;;;;41.70;19.20;;;;;;;18.51;99.99;101201.98;109837;1284;22404;-60
2023/09/26 09:33:15;;;;;;;40.60;20.40;;;;;;;18.52;99.77;101200.48;109843;1284;22195;-58
2023/09/26 09:35:47;;;;;;;37.40;19.70;;;;;;;18.53;99.89;101203.42;109826;1284;22349;-59
2023/09/26 09:38:19;;;;;;;37.90;19.90;;;;;;;18.52;99.65;101201.41;109838;1284;23034;-59
2023/09/26 09:40:51;;;;;;;36.40;18.30;;;;;;;18.54;99.69;101197.91;109830;1281;22173;-59
2023/09/26 09:43:25;;;;;;;39.40;21.00;;;;;;;18.55;99.41;101198.23;109837;1284;22207;-59
2023/09/26 09:46:04;;;;;;;40.40;22.60;;;;;;;18.56;99.27;101199.00;109826;1270;22343;-59
2023/09/26 09:48:40;;;;;;;38.30;19.80;;;;;;;18.58;99.55;101194.84;109697;1283;23042;-59
2023/09/26 09:51:14;;;;;;;45.10;20.30;;;;;;;18.61;99.29;101197.20;109851;1284;22112;-59
2023/09/26 09:53:54;;;;;;;41.50;20.30;;;;;;;18.64;99.37;101197.02;109822;1284;22359;-60
2023/09/26 09:56:34;;;;;;;44.40;21.20;;;;;;;18.65;99.02;101195.22;109815;1284;22209;-59
2023/09/26 09:59:12;;;;;;;39.50;19.70;;;;;;;18.66;98.94;101192.75;109821;1277;22874;-60
2023/09/26 10:01:49;;;;;;;41.30;22.10;;;;;;;18.70;98.88;101192.49;109838;1270;22176;-60
2023/09/26 10:04:23;;;;;;;38.30;19.40;;;;;;;18.73;98.53;101190.83;109828;1280;22217;-60
2023/09/26 10:06:55;;;;;;;40.40;21.60;;;;;;;18.75;98.12;101184.16;105661;1284;5447075;-59
2023/09/26 10:09:28;;;;;;;38.70;20.00;;;;;;;18.78;98.25;101184.89;109822;1284;22837;-59
2023/09/26 10:11:59;;;;;;;44.10;21.90;;;;;;;18.83;98.13;101183.91;109829;1284;22174;-59
2023/09/26 10:14:34;;;;;;;40.60;20.80;;;;;;;18.86;98.04;101188.70;109833;1270;22157;-57
2023/09/26 10:17:06;;;;;;;42.30;20.40;;;;;;;18.90;97.81;101187.16;109793;1280;22919;-60
2023/09/26 10:19:39;;;;;;;38.50;19.40;;;;;;;18.95;97.76;101183.77;109847;1284;22233;-60
2023/09/26 10:22:20;;;;;;;39.20;19.30;;;;;;;19.00;97.46;101179.44;109836;1284;22835;-59
2023/09/26 10:24:52;;;;;;;39.40;19.60;;;;;;;19.03;97.42;101176.71;109816;1280;22199;-60
2023/09/26 10:27:42;;;;;;;43.70;21.20;;;;;;;19.06;97.47;101176.80;109826;1277;22186;-60
2023/09/26 10:30:15;;;;;;;45.90;19.90;;;;;;;19.08;97.16;101171.76;109729;1284;22544;-59
2023/09/26 10:32:56;;;;;;;42.50;20.20;;;;;;;19.10;97.01;101174.02;109816;1284;22169;-60
2023/09/26 10:35:30;;;;;;;38.40;19.00;;;;;;;19.13;96.89;101171.80;109826;1284;22199;-59
2023/09/26 10:38:11;;;;;;;40.60;20.40;;;;;;;19.16;96.88;101170.48;109829;1284;22238;-60
2023/09/26 10:40:42;;;;;;;41.70;20.70;;;;;;;19.18;96.80;101169.79;109689;1285;22941;-60
2023/09/26 10:43:14;;;;;;;43.20;20.20;;;;;;;19.21;96.47;101168.86;109784;1285;22178;-60
2023/09/26 10:45:48;;;;;;;39.30;19.70;;;;;;;19.22;96.29;101163.82;109718;1285;22354;-59
2023/09/26 10:48:23;;;;;;;38.70;19.70;;;;;;;19.26;96.31;101162.68;109790;1279;22172;-60
2023/09/26 10:51:07;;;;;;;35.20;17.90;;;;;;;19.30;96.35;101160.04;109756;1285;22180;-60
2023/09/26 10:53:38;;;;;;;43.00;20.20;;;;;;;19.34;95.86;101159.55;109771;1279;22179;-60
2023/09/26 10:56:10;;;;;;;36.70;17.50;;;;;;;19.39;95.81;101157.22;109708;1285;22314;-60
2023/09/26 10:58:43;;;;;;;35.50;18.50;;;;;;;19.41;95.55;101161.55;109715;1277;22146;-60
2023/09/26 11:01:14;;;;;;;34.00;17.70;;;;;;;19.45;95.58;101159.68;109729;1285;22190;-60
2023/09/26 11:03:45;;;;;;;35.60;18.30;;;;;;;19.49;95.38;101157.47;109780;1279;22328;-60
2023/09/26 11:06:17;;;;;;;33.40;16.80;;;;;;;19.52;95.00;101157.34;109741;1285;22180;-60
2023/09/26 11:08:49;;;;;;;36.00;16.70;;;;;;;19.58;94.89;101156.36;109756;1285;22201;-60
2023/09/26 11:11:20;;;;;;;34.70;17.80;;;;;;;19.63;94.58;101150.63;109731;1285;22266;-59
2023/09/26 11:13:52;;;;;;;33.80;16.70;;;;;;;19.68;94.39;101150.85;109707;1285;22184;-59
2023/09/26 11:16:23;;;;;;;34.00;17.20;;;;;;;19.72;93.99;101143.73;109743;1282;22167;-60
2023/09/26 11:22:01;;;;;;;;;;;;;;;;;;;;;
2023/09/26 11:24:32;;;;;;;34.60;17.30;;;;;;;19.81;93.17;101146.48;109740;1280;22158;-60
2023/09/26 11:27:05;;;;;;;34.30;17.30;;;;;;;19.80;93.05;101148.69;109748;1285;22172;-60
2023/09/26 11:29:36;;;;;;;29.80;15.10;;;;;;;19.81;93.10;101143.95;109749;1285;23323;-59
2023/09/26 11:32:08;;;;;;;29.50;15.30;;;;;;;19.81;93.28;101143.75;109751;1285;22195;-60